Pagrindinis puslapis
METAR-TAF:

METAR-TAF

Oro uostai :

Mahadzanga, Madagaskaras

platuma: 15-40S, ilguma: 046-21E, Aukštis: 26 m

Dabartinis oras

Ataskaita buvo paskelbta 40 minutes, ne 15:00 UTC
Vėjas 6 kt iš Vakarų/Šiaurės Vakarų, svyruoja nuo Vakarų ir Šiaurės/Šiaurės Vakarų
Temperatūra 25°C
Drėgmė 69%
Slėgis 1014 hPa
Matomumas 10 km arba daugiau
nėra debesų žemiau 1500 m ir nėra kamuolinių lietaus debesų

METAR: FMNM 171500Z 30006KT 270V330 CAVOK 25/19 Q1014 NOSIG

Laikas: 18:40 (15:40 UTC)

Prognozė

Ataskaita buvo paskelbta 4 valandos ir 40 minutes, ne 11:00 UTC
Prognozė galioja nuo 17 metu 12 UTC su 18 metu 12 UTC
Vėjas 10 kt iš Vakarų
Matomumas 10 km arba daugiau
Mažai debesys ne aukštis 2000 ft
Tapsmas
nuo 17 metu 20 UTC su 17 metu 23 UTC
Vėjas 5 kt iš Pietryčių
Tapsmas
nuo 18 metu 08 UTC su 18 metu 11 UTC
Vėjas 10 kt iš Vakarų

TAF: FMNM 171100Z 1712/1812 28010KT 9999 FEW020 BECMG 1720/1723 14005KT BECMG 1808/1811 28010KT

Orai ataskaitas ir orų prognozės (METAR, TAF).

turimą stotys yra geltonos ir raudonos taškus žemėlapyje.

Perkelti pele per norėdami pamatyti stoties vardą.

Tada spustelėkite, norėdami matyti oro stebėjimo ir prognozės.

Norėdami pakeisti žemėlapį: spustelėkite ant žalios mygtukų su juodo kryžiaus žemyn,; žalią mygtuką su brūkšneliu, jei norite nutolinti; arba žalių rodyklių gretimoms žemėlapius.


METAR-TAF: